createdAt,value
2023-03-25T00:01:34.810Z,77.96
2023-03-25T00:04:27.256Z,77.58
2023-03-25T00:07:15.747Z,77.95
2023-03-25T00:10:04.381Z,77.59
2023-03-25T00:12:54.163Z,77.09
2023-03-25T00:15:46.169Z,77.39
2023-03-25T00:18:34.794Z,77.06
2023-03-25T00:21:23.428Z,77.68
2023-03-25T00:24:12.338Z,76.93
2023-03-25T00:27:00.917Z,77.25
2023-03-25T00:29:50.705Z,76.55
2023-03-25T00:32:39.774Z,76.96
2023-03-25T00:35:30.031Z,76.77
2023-03-25T00:38:18.449Z,77.39
2023-03-25T00:41:12.124Z,77.36
2023-03-25T00:44:01.549Z,77.67
2023-03-25T00:46:51.640Z,76.86
2023-03-25T00:49:40.030Z,77.30
2023-03-25T00:52:28.703Z,77.04
2023-03-25T00:55:18.511Z,76.70
2023-03-25T00:58:06.884Z,77.54
2023-03-25T01:00:56.574Z,77.59
2023-03-25T01:03:46.301Z,77.24
2023-03-25T01:06:36.671Z,77.45
2023-03-25T01:09:26.123Z,77.52
2023-03-25T01:12:14.852Z,77.58
2023-03-25T01:15:03.265Z,77.10
2023-03-25T01:17:51.850Z,77.54
2023-03-25T01:20:42.000Z,76.71
2023-03-25T01:23:30.366Z,76.75
2023-03-25T01:26:18.999Z,77.67
2023-03-25T01:29:07.551Z,76.73
2023-03-25T01:31:56.014Z,75.80
2023-03-25T01:34:47.000Z,76.96
2023-03-25T01:37:36.839Z,76.33
2023-03-25T01:40:25.738Z,76.22
2023-03-25T01:43:15.374Z,76.55
2023-03-25T01:46:03.914Z,75.65
2023-03-25T01:48:52.468Z,77.83
2023-03-25T01:51:45.558Z,77.39
2023-03-25T01:54:37.530Z,77.72
2023-03-25T01:57:26.414Z,78.69
2023-03-25T02:00:16.309Z,77.98
2023-03-25T02:03:05.197Z,77.44
2023-03-25T02:05:56.980Z,77.32
2023-03-25T02:08:45.355Z,77.40
2023-03-25T02:11:35.426Z,76.65
2023-03-25T02:14:25.954Z,77.18
2023-03-25T02:17:19.377Z,77.44
2023-03-25T02:20:41.511Z,77.72
2023-03-25T02:23:58.925Z,77.76
2023-03-25T02:27:27.365Z,76.90
2023-03-25T02:30:49.140Z,76.76
2023-03-25T02:34:19.800Z,77.03
2023-03-25T02:37:30.668Z,76.94
2023-03-25T02:40:24.880Z,77.01
2023-03-25T02:43:16.690Z,75.81
2023-03-25T02:46:09.770Z,76.13
2023-03-25T02:49:00.948Z,75.52
2023-03-25T02:51:54.707Z,75.36
2023-03-25T02:54:45.138Z,75.50
2023-03-25T02:57:36.521Z,73.86
2023-03-25T03:00:27.518Z,74.42
2023-03-25T03:03:15.930Z,75.23
2023-03-25T03:06:06.546Z,74.46
2023-03-25T03:09:23.018Z,74.86
2023-03-25T03:12:21.872Z,74.96
2023-03-25T03:15:24.577Z,75.68
2023-03-25T03:18:19.717Z,74.13
2023-03-25T03:21:11.323Z,75.00
2023-03-25T03:24:03.754Z,75.49
2023-03-25T03:26:55.334Z,75.31
2023-03-25T03:29:47.890Z,74.20
2023-03-25T03:32:43.446Z,74.50
2023-03-25T03:35:34.982Z,74.77
2023-03-25T03:38:24.528Z,75.35
2023-03-25T03:41:15.423Z,75.20
2023-03-25T03:44:05.945Z,77.10
2023-03-25T03:46:59.021Z,76.29
2023-03-25T03:49:52.920Z,78.02
2023-03-25T03:52:43.575Z,77.69
2023-03-25T03:55:37.901Z,77.74
2023-03-25T03:58:30.498Z,76.93
2023-03-25T04:01:28.039Z,76.87
2023-03-25T04:04:20.218Z,77.42
2023-03-25T04:07:15.615Z,76.74
2023-03-25T04:10:14.680Z,76.71
2023-03-25T04:13:05.830Z,77.16
2023-03-25T04:15:54.557Z,76.83
2023-03-25T04:18:43.535Z,77.26
2023-03-25T04:21:32.320Z,77.52
2023-03-25T04:24:22.113Z,77.48
2023-03-25T04:27:13.735Z,76.33
2023-03-25T04:30:03.506Z,76.49
2023-03-25T04:32:52.207Z,75.48
2023-03-25T04:35:40.964Z,75.71
2023-03-25T04:38:29.661Z,75.76
2023-03-25T04:41:20.176Z,75.46
2023-03-25T04:44:08.766Z,75.62
2023-03-25T04:46:57.275Z,75.70
2023-03-25T04:49:46.019Z,75.43
2023-03-25T04:52:38.310Z,75.88
2023-03-25T04:55:26.999Z,75.92
2023-03-25T04:58:17.090Z,76.24
2023-03-25T05:01:06.978Z,77.14
2023-03-25T05:03:57.849Z,78.02
2023-03-25T05:06:47.861Z,79.53
2023-03-25T05:09:36.378Z,79.16
2023-03-25T05:12:25.738Z,79.28
2023-03-25T05:15:17.070Z,78.39
2023-03-25T05:18:06.825Z,78.41
2023-03-25T05:20:56.797Z,77.86
2023-03-25T05:23:45.534Z,78.02
2023-03-25T05:26:35.313Z,76.68
2023-03-25T05:29:23.985Z,75.81
2023-03-25T05:32:17.803Z,75.95
2023-03-25T05:35:07.272Z,76.57
2023-03-25T05:37:55.961Z,75.62
2023-03-25T05:40:45.684Z,75.56
2023-03-25T05:43:35.786Z,76.35
2023-03-25T05:46:24.161Z,78.35
2023-03-25T05:49:13.894Z,79.36
2023-03-25T05:52:02.491Z,79.53
2023-03-25T05:54:52.057Z,79.71
2023-03-25T05:57:40.358Z,80.66
2023-03-25T06:00:30.493Z,80.66
2023-03-25T06:03:21.065Z,81.49
2023-03-25T06:06:13.989Z,81.24
2023-03-25T06:09:02.617Z,80.71
2023-03-25T06:11:53.447Z,80.56
2023-03-25T06:14:45.516Z,80.53
2023-03-25T06:17:34.879Z,80.01
2023-03-25T06:20:23.336Z,80.53
2023-03-25T06:23:13.017Z,80.27
2023-03-25T06:26:01.550Z,79.98
2023-03-25T06:28:50.382Z,79.57
2023-03-25T06:31:38.995Z,78.93
2023-03-25T06:34:27.602Z,80.84
2023-03-25T06:37:16.063Z,79.07
2023-03-25T06:40:07.786Z,78.58
2023-03-25T06:42:56.964Z,78.26
2023-03-25T06:46:04.438Z,76.86
2023-03-25T06:49:10.836Z,75.34
2023-03-25T06:51:59.317Z,74.74
2023-03-25T06:54:47.681Z,72.89
2023-03-25T06:57:37.846Z,73.46
2023-03-25T07:00:28.420Z,73.32
2023-03-25T07:03:16.815Z,72.91
2023-03-25T07:06:06.511Z,72.64
2023-03-25T07:08:54.889Z,72.15
2023-03-25T07:11:43.246Z,72.89
2023-03-25T07:14:32.929Z,71.29
2023-03-25T07:17:21.793Z,71.87
2023-03-25T07:20:12.944Z,70.57
2023-03-25T07:23:02.412Z,70.37
2023-03-25T07:25:51.106Z,70.84
2023-03-25T07:28:40.665Z,70.11
2023-03-25T07:31:30.611Z,70.84
2023-03-25T07:34:19.041Z,70.56
2023-03-25T07:37:08.233Z,70.14
2023-03-25T07:39:56.568Z,69.08
2023-03-25T07:42:45.747Z,69.46
2023-03-25T07:45:44.921Z,68.55
2023-03-25T07:48:34.669Z,68.94
2023-03-25T07:51:23.086Z,67.07
2023-03-25T07:54:11.643Z,66.71
2023-03-25T07:57:00.394Z,66.89
2023-03-25T07:59:48.888Z,65.78
2023-03-25T08:02:37.402Z,64.49
2023-03-25T08:05:28.004Z,63.97
2023-03-25T08:08:16.768Z,63.68
2023-03-25T08:11:05.375Z,63.32
2023-03-25T08:13:53.731Z,64.55
2023-03-25T08:16:42.194Z,64.58
2023-03-25T08:19:30.741Z,64.47
2023-03-25T08:22:20.498Z,63.82
2023-03-25T08:25:09.655Z,63.81
2023-03-25T08:27:58.053Z,64.96
2023-03-25T08:30:46.900Z,65.27
2023-03-25T08:33:41.057Z,64.75
2023-03-25T08:36:29.673Z,65.06
2023-03-25T08:39:19.458Z,64.55
2023-03-25T08:42:07.908Z,64.32
2023-03-25T08:44:56.245Z,63.38
2023-03-25T08:47:45.836Z,64.13
2023-03-25T08:50:34.246Z,63.37
2023-03-25T08:53:22.589Z,63.58
2023-03-25T08:56:12.439Z,62.89
2023-03-25T08:59:00.770Z,63.78
2023-03-25T09:01:49.274Z,63.07
2023-03-25T09:04:38.982Z,62.17
2023-03-25T09:07:27.358Z,62.35
2023-03-25T09:10:15.779Z,61.74
2023-03-25T09:13:05.540Z,62.76
2023-03-25T09:15:54.144Z,64.39
2023-03-25T09:18:42.817Z,62.51
2023-03-25T09:21:31.586Z,62.41
2023-03-25T09:24:22.737Z,62.90
2023-03-25T09:27:11.096Z,62.30
2023-03-25T09:30:01.135Z,62.21
2023-03-25T09:32:49.430Z,62.29
2023-03-25T09:35:37.893Z,63.59
2023-03-25T09:38:26.344Z,63.96
2023-03-25T09:41:31.452Z,62.90
2023-03-25T09:44:23.848Z,64.32
2023-03-25T09:47:14.845Z,62.76
2023-03-25T09:50:07.007Z,62.67
2023-03-25T09:52:58.989Z,63.89
2023-03-25T09:55:48.203Z,63.04
2023-03-25T09:58:41.602Z,62.07
2023-03-25T10:01:37.350Z,62.49
2023-03-25T10:04:57.208Z,63.09
2023-03-25T10:07:52.580Z,63.34
2023-03-25T10:10:47.259Z,60.24
2023-03-25T10:13:42.607Z,60.51
2023-03-25T10:16:37.796Z,62.44
2023-03-25T10:19:41.469Z,61.58
2023-03-25T10:22:37.498Z,61.22
2023-03-25T10:25:29.175Z,60.57
2023-03-25T10:28:20.797Z,59.12
2023-03-25T10:31:13.924Z,60.20
2023-03-25T10:34:05.308Z,60.94
2023-03-25T10:36:57.774Z,59.82
2023-03-25T10:39:47.457Z,59.58
2023-03-25T10:42:39.812Z,59.62
2023-03-25T10:45:29.649Z,58.23
2023-03-25T10:48:22.955Z,58.65
2023-03-25T10:51:12.710Z,59.40
2023-03-25T10:54:01.723Z,57.86
2023-03-25T10:56:53.086Z,57.04
2023-03-25T10:59:45.477Z,58.34
2023-03-25T11:02:35.145Z,56.81
2023-03-25T11:05:26.072Z,56.66
2023-03-25T11:08:24.152Z,56.44
2023-03-25T11:11:13.566Z,56.10
2023-03-25T11:14:03.839Z,57.65
2023-03-25T11:16:56.040Z,58.15
2023-03-25T11:19:54.974Z,57.63
2023-03-25T11:22:47.084Z,56.42
2023-03-25T11:25:39.961Z,56.22
2023-03-25T11:28:37.603Z,56.05
2023-03-25T11:31:28.400Z,56.90
2023-03-25T11:34:21.133Z,56.67
2023-03-25T11:37:17.579Z,56.99
2023-03-25T11:40:07.864Z,55.29
2023-03-25T11:42:57.611Z,55.35
2023-03-25T11:45:46.544Z,56.91
2023-03-25T11:48:40.054Z,55.42
2023-03-25T11:51:30.384Z,55.94
2023-03-25T11:54:19.271Z,55.91
2023-03-25T11:57:12.520Z,55.03
2023-03-25T12:00:10.793Z,55.73
2023-03-25T12:03:02.061Z,55.05
2023-03-25T12:06:05.403Z,54.15
2023-03-25T12:08:55.125Z,54.18
2023-03-25T12:11:48.880Z,54.78
2023-03-25T12:14:45.526Z,54.88
2023-03-25T12:17:45.916Z,55.25
2023-03-25T12:20:38.711Z,56.31
2023-03-25T12:23:33.780Z,55.03
2023-03-25T12:26:27.019Z,54.27
2023-03-25T12:29:26.764Z,53.25
2023-03-25T12:32:22.708Z,53.47
2023-03-25T12:35:22.563Z,53.76
2023-03-25T12:38:21.276Z,52.61
2023-03-25T12:41:20.728Z,51.55
2023-03-25T12:44:11.913Z,52.87
2023-03-25T12:47:10.325Z,52.98
2023-03-25T12:50:13.965Z,53.13
2023-03-25T12:53:16.433Z,51.85
2023-03-25T12:56:17.352Z,52.25
2023-03-25T12:59:30.807Z,52.21
2023-03-25T13:02:31.711Z,51.92
2023-03-25T13:05:23.962Z,52.67
2023-03-25T13:08:16.299Z,51.06
2023-03-25T13:11:08.574Z,51.70
2023-03-25T13:14:01.858Z,52.35
2023-03-25T13:16:52.313Z,51.74
2023-03-25T13:19:44.252Z,53.09
2023-03-25T13:22:36.464Z,50.40
2023-03-25T13:25:28.855Z,51.00
2023-03-25T13:28:20.242Z,50.23
2023-03-25T13:31:14.627Z,49.56
2023-03-25T13:34:09.378Z,49.98
2023-03-25T13:37:06.828Z,49.88
2023-03-25T13:40:13.770Z,51.90
2023-03-25T13:43:06.353Z,51.92
2023-03-25T13:45:59.850Z,56.20
2023-03-25T13:48:53.111Z,61.67
2023-03-25T13:51:41.549Z,65.66
2023-03-25T13:54:34.419Z,66.19
2023-03-25T13:57:33.791Z,64.29
2023-03-25T14:00:58.810Z,63.71
2023-03-25T14:04:30.367Z,60.22
2023-03-25T14:08:04.077Z,59.23
2023-03-25T14:10:55.511Z,57.50
2023-03-25T14:13:46.462Z,54.54
2023-03-25T14:16:37.495Z,52.80
2023-03-25T14:19:31.137Z,53.30
2023-03-25T14:22:23.003Z,51.98
2023-03-25T14:25:21.123Z,51.75
2023-03-25T14:28:12.812Z,51.43
2023-03-25T14:31:18.548Z,50.97
2023-03-25T14:34:27.822Z,50.60
2023-03-25T14:37:27.389Z,50.22
2023-03-25T14:41:03.001Z,50.27
2023-03-25T14:44:02.140Z,49.26
2023-03-25T14:46:50.572Z,50.55
2023-03-25T14:49:54.578Z,50.44
2023-03-25T14:52:45.283Z,50.14
2023-03-25T14:55:35.822Z,49.75
2023-03-25T14:58:26.273Z,49.06
2023-03-25T15:01:17.797Z,48.70
2023-03-25T15:04:14.445Z,48.25
2023-03-25T15:07:04.910Z,46.49
2023-03-25T15:09:55.952Z,46.39
2023-03-25T15:12:44.931Z,48.31
2023-03-25T15:15:35.710Z,48.09
2023-03-25T15:19:01.043Z,49.74
2023-03-25T15:22:22.868Z,51.45
2023-03-25T15:25:16.737Z,68.02
2023-03-25T15:28:14.507Z,70.48
2023-03-25T15:31:16.320Z,76.99
2023-03-25T15:34:20.564Z,77.46
2023-03-25T15:37:33.127Z,78.70
2023-03-25T15:40:33.474Z,74.78
2023-03-25T15:44:10.723Z,69.64
2023-03-25T15:47:25.041Z,68.33
2023-03-25T15:50:31.353Z,70.02
2023-03-25T15:53:49.231Z,69.50
2023-03-25T15:56:42.285Z,69.24
2023-03-25T15:59:38.406Z,69.93
2023-03-25T16:02:31.737Z,71.92
2023-03-25T16:05:20.842Z,70.63
2023-03-25T16:08:11.441Z,70.72
2023-03-25T16:11:15.673Z,71.04
2023-03-25T16:14:12.532Z,70.85
2023-03-25T16:17:03.002Z,71.01
2023-03-25T16:19:53.579Z,72.39
2023-03-25T16:22:43.289Z,71.84
2023-03-25T16:25:35.597Z,72.53
2023-03-25T16:28:27.797Z,72.45
2023-03-25T16:31:34.781Z,72.24
2023-03-25T16:34:23.531Z,72.57
2023-03-25T16:37:12.373Z,71.69
2023-03-25T16:40:00.708Z,71.20
2023-03-25T16:42:49.510Z,71.42
2023-03-25T16:45:38.020Z,72.66
2023-03-25T16:48:29.557Z,70.23
2023-03-25T16:51:22.725Z,71.18
2023-03-25T16:54:13.255Z,71.28
2023-03-25T16:57:02.101Z,72.63
2023-03-25T16:59:52.286Z,72.16
2023-03-25T17:02:41.967Z,71.68
2023-03-25T17:05:31.877Z,72.36
2023-03-25T17:08:21.445Z,71.69
2023-03-25T17:11:10.414Z,71.87
2023-03-25T17:14:00.967Z,75.78
2023-03-25T17:16:50.730Z,79.59
2023-03-25T17:19:45.076Z,82.50
2023-03-25T17:22:36.206Z,84.12
2023-03-25T17:25:27.758Z,84.58
2023-03-25T17:28:35.204Z,83.29
2023-03-25T17:31:30.007Z,83.17
2023-03-25T17:34:20.881Z,83.21
2023-03-25T17:37:13.868Z,83.33
2023-03-25T17:40:12.633Z,82.70
2023-03-25T17:43:01.341Z,81.94
2023-03-25T17:45:49.749Z,81.62
2023-03-25T17:48:38.170Z,81.80
2023-03-25T17:51:27.760Z,80.86
2023-03-25T17:54:16.523Z,80.02
2023-03-25T17:57:10.510Z,79.83
2023-03-25T17:59:58.930Z,79.04
2023-03-25T18:02:47.673Z,79.50
2023-03-25T18:05:36.150Z,79.54
2023-03-25T18:08:25.705Z,78.39
2023-03-25T18:11:14.155Z,79.36
2023-03-25T18:14:03.956Z,79.51
2023-03-25T18:16:53.309Z,79.46
2023-03-25T18:19:42.005Z,80.09
2023-03-25T18:22:30.732Z,79.73
2023-03-25T18:25:19.192Z,80.65
2023-03-25T18:28:07.830Z,80.14
2023-03-25T18:30:59.573Z,80.34
2023-03-25T18:33:50.043Z,80.77
2023-03-25T18:36:38.383Z,81.30
2023-03-25T18:39:28.163Z,81.50
2023-03-25T18:42:16.517Z,81.19
2023-03-25T18:45:05.563Z,80.95
2023-03-25T18:47:55.935Z,81.13
2023-03-25T18:50:48.447Z,81.06
2023-03-25T18:53:36.918Z,79.91
2023-03-25T18:56:25.475Z,79.17
2023-03-25T18:59:19.754Z,78.95
2023-03-25T19:02:08.121Z,78.51
2023-03-25T19:05:00.881Z,77.99
2023-03-25T19:07:50.276Z,77.64
2023-03-25T19:10:39.017Z,78.38
2023-03-25T19:13:27.383Z,78.17
2023-03-25T19:16:15.795Z,78.23
2023-03-25T19:19:04.386Z,78.17
2023-03-25T19:21:54.330Z,78.44
2023-03-25T19:24:42.810Z,78.95
2023-03-25T19:27:31.252Z,79.59
2023-03-25T19:30:21.673Z,79.51
2023-03-25T19:33:11.352Z,79.91
2023-03-25T19:36:01.387Z,80.28
2023-03-25T19:38:53.134Z,79.69
2023-03-25T19:41:42.850Z,80.71
2023-03-25T19:44:31.544Z,80.13
2023-03-25T19:47:19.880Z,80.29
2023-03-25T19:50:09.422Z,80.33
2023-03-25T19:52:58.574Z,80.42
2023-03-25T19:55:48.280Z,80.23
2023-03-25T19:58:36.709Z,80.09
2023-03-25T20:01:25.266Z,79.94
2023-03-25T20:04:15.440Z,79.53
2023-03-25T20:07:05.216Z,79.32
2023-03-25T20:09:53.803Z,79.33
2023-03-25T20:12:43.574Z,79.53
2023-03-25T20:15:32.332Z,79.26
2023-03-25T20:18:21.197Z,79.38
2023-03-25T20:21:09.893Z,79.16
2023-03-25T20:23:58.264Z,79.21
2023-03-25T20:26:46.689Z,79.38
2023-03-25T20:29:36.778Z,79.10
2023-03-25T20:32:34.050Z,79.10
2023-03-25T20:35:30.300Z,78.53
2023-03-25T20:38:18.873Z,78.65
2023-03-25T20:41:08.339Z,78.65
2023-03-25T20:43:56.656Z,79.03
2023-03-25T20:46:46.776Z,78.99
2023-03-25T20:49:37.943Z,79.01
2023-03-25T20:52:28.899Z,78.63
2023-03-25T20:55:17.340Z,78.56
2023-03-25T20:58:06.108Z,79.13
2023-03-25T21:00:56.030Z,78.41
2023-03-25T21:03:45.921Z,78.58
2023-03-25T21:06:34.640Z,78.49
2023-03-25T21:09:23.033Z,77.78
2023-03-25T21:12:11.428Z,77.48
2023-03-25T21:14:59.773Z,77.78
2023-03-25T21:17:48.245Z,77.60
2023-03-25T21:20:38.465Z,77.20
2023-03-25T21:23:28.178Z,77.46
2023-03-25T21:26:17.676Z,77.68
2023-03-25T21:29:06.100Z,77.60
2023-03-25T21:31:54.520Z,77.46
2023-03-25T21:34:43.135Z,78.14
2023-03-25T21:37:37.641Z,77.34
2023-03-25T21:40:26.454Z,78.01
2023-03-25T21:43:27.916Z,77.58
2023-03-25T21:46:16.429Z,77.70
2023-03-25T21:49:04.981Z,78.01
2023-03-25T21:51:56.824Z,77.61
2023-03-25T21:54:48.480Z,77.29
2023-03-25T21:57:38.365Z,77.93
2023-03-25T22:00:27.565Z,77.60
2023-03-25T22:03:18.857Z,77.01
2023-03-25T22:06:09.764Z,77.24
2023-03-25T22:08:59.090Z,77.07
2023-03-25T22:11:48.785Z,77.13
2023-03-25T22:14:37.110Z,77.08
2023-03-25T22:17:25.690Z,77.29
2023-03-25T22:20:14.596Z,77.63
2023-03-25T22:23:02.932Z,77.36
2023-03-25T22:25:52.489Z,77.39
2023-03-25T22:28:42.771Z,77.98
2023-03-25T22:31:32.760Z,77.52
2023-03-25T22:34:21.248Z,77.27
2023-03-25T22:37:09.659Z,77.47
2023-03-25T22:39:58.198Z,77.42
2023-03-25T22:42:46.575Z,77.13
2023-03-25T22:45:36.325Z,78.01
2023-03-25T22:48:25.137Z,78.75
2023-03-25T22:51:15.900Z,78.37
2023-03-25T22:54:05.257Z,79.19
2023-03-25T22:56:53.722Z,78.78
2023-03-25T22:59:42.206Z,78.83
2023-03-25T23:02:32.029Z,78.95
2023-03-25T23:05:20.453Z,79.13
2023-03-25T23:12:25.658Z,79.39
2023-03-25T23:15:15.037Z,80.98
2023-03-25T23:18:04.977Z,83.17
2023-03-25T23:20:53.785Z,83.96
2023-03-25T23:23:52.727Z,84.55
2023-03-25T23:26:42.698Z,83.97
2023-03-25T23:29:32.898Z,83.67
2023-03-25T23:32:21.422Z,82.78
2023-03-25T23:35:11.706Z,82.52
2023-03-25T23:38:00.722Z,82.76
2023-03-25T23:40:49.098Z,82.33
2023-03-25T23:43:38.387Z,82.21
2023-03-25T23:46:27.877Z,81.90
2023-03-25T23:49:17.916Z,82.69
2023-03-25T23:52:11.611Z,82.05
2023-03-25T23:55:00.624Z,81.26
2023-03-25T23:57:49.028Z,81.83
